KTNU/TNU METAR and TAF weather

Enter ICAO airport designator
Station Type Date Time Source
KTNU METAR 2023/02/05 23:55 UTC NOAA

KTNU 052355Z AUTO 32003KT 10SM CLR 01/00 A3011 RMK A01


Station Type Date Time Source
KTNU Decoded METAR 2023/02/05 23:55 UTC NOAA

Newton Municipal, IA, United States (KTNU) 41-41N 093-01W
Feb 05, 2023 - 06:55 PM EST / 2023.02.05 2355 UTC
Wind: from the NW (320 degrees) at 3 MPH (3 KT):0
Visibility: 10 mile(s):0
Sky conditions: clear
Temperature: 33 F (1 C)
Dew Point: 32 F (0 C)
Relative Humidity: 93%
Pressure (altimeter): 30.11 in. Hg (1019 hPa)
ob: KTNU 052355Z AUTO 32003KT 10SM CLR 01/00 A3011 RMK A01
cycle: 0

Station Type Date Time Source
KTNU TAF UTC NOAA

Error!

Example: see airport list